createdAt,value
2024-01-18T00:00:25.136Z,988.81
2024-01-18T00:01:25.052Z,988.78
2024-01-18T00:02:25.010Z,988.79
2024-01-18T00:03:25.123Z,988.76
2024-01-18T00:04:25.829Z,988.78
2024-01-18T00:05:25.014Z,988.81
2024-01-18T00:06:25.071Z,988.82
2024-01-18T00:07:25.117Z,988.87
2024-01-18T00:08:24.935Z,988.89
2024-01-18T00:09:24.955Z,988.94
2024-01-18T00:10:24.914Z,988.95
2024-01-18T00:11:24.921Z,988.93
2024-01-18T00:12:24.920Z,988.91
2024-01-18T00:13:24.898Z,988.93
2024-01-18T00:14:25.778Z,988.98
2024-01-18T00:15:24.892Z,988.98
2024-01-18T00:16:24.859Z,988.98
2024-01-18T00:17:24.855Z,989.01
2024-01-18T00:18:25.659Z,989.03
2024-01-18T00:19:24.947Z,989.06
2024-01-18T00:20:24.783Z,989.06
2024-01-18T00:21:24.814Z,989.08
2024-01-18T00:22:25.477Z,989.09
2024-01-18T00:23:24.772Z,989.08
2024-01-18T00:24:24.772Z,989.09
2024-01-18T00:25:24.801Z,989.11
2024-01-18T00:26:24.707Z,989.22
2024-01-18T00:27:24.747Z,989.16
2024-01-18T00:28:24.674Z,989.17
2024-01-18T00:29:25.346Z,989.18
2024-01-18T00:30:24.687Z,989.16
2024-01-18T00:31:24.632Z,989.17
2024-01-18T00:32:25.359Z,989.24
2024-01-18T00:33:24.784Z,989.22
2024-01-18T00:34:24.624Z,989.21
2024-01-18T00:35:24.689Z,989.28
2024-01-18T00:36:24.608Z,989.24
2024-01-18T00:37:24.562Z,989.26
2024-01-18T00:38:24.539Z,989.26
2024-01-18T00:39:24.577Z,989.27
2024-01-18T00:40:24.545Z,989.26
2024-01-18T00:41:24.554Z,989.25
2024-01-18T00:42:24.654Z,989.30
2024-01-18T00:43:24.480Z,989.30
2024-01-18T00:44:24.494Z,989.35
2024-01-18T00:45:24.555Z,989.34
2024-01-18T00:46:24.438Z,989.32
2024-01-18T00:47:24.453Z,989.34
2024-01-18T00:48:24.524Z,989.34
2024-01-18T00:49:24.523Z,989.38
2024-01-18T00:50:24.418Z,989.39
2024-01-18T00:51:24.452Z,989.37
2024-01-18T00:52:24.363Z,989.41
2024-01-18T00:53:26.719Z,989.37
2024-01-18T00:54:24.392Z,989.46
2024-01-18T00:55:24.333Z,989.48
2024-01-18T00:56:24.313Z,989.48
2024-01-18T00:57:24.387Z,989.54
2024-01-18T00:58:24.316Z,989.52
2024-01-18T00:59:24.303Z,989.48
2024-01-18T01:00:24.373Z,989.53
2024-01-18T01:01:24.337Z,989.51
2024-01-18T01:02:24.262Z,989.52
2024-01-18T01:03:24.277Z,989.53
2024-01-18T01:04:24.251Z,989.58
2024-01-18T01:05:24.248Z,989.65
2024-01-18T01:06:24.214Z,989.66
2024-01-18T01:07:24.213Z,989.67
2024-01-18T01:08:24.253Z,989.66
2024-01-18T01:09:24.189Z,989.71
2024-01-18T01:10:24.862Z,989.77
2024-01-18T01:11:24.247Z,989.79
2024-01-18T01:12:24.147Z,989.83
2024-01-18T01:13:24.099Z,989.77
2024-01-18T01:14:24.107Z,989.75
2024-01-18T01:15:24.172Z,989.76
2024-01-18T01:16:24.092Z,989.78
2024-01-18T01:17:24.075Z,989.77
2024-01-18T01:18:24.111Z,989.80
2024-01-18T01:19:24.078Z,989.86
2024-01-18T01:20:24.028Z,989.82
2024-01-18T01:21:24.044Z,989.86
2024-01-18T01:22:23.998Z,989.84
2024-01-18T01:23:24.029Z,989.88
2024-01-18T01:24:23.998Z,989.85
2024-01-18T01:25:23.981Z,989.81
2024-01-18T01:26:23.923Z,989.82
2024-01-18T01:27:23.977Z,989.83
2024-01-18T01:28:23.935Z,989.82
2024-01-18T01:29:23.937Z,989.79
2024-01-18T01:30:23.959Z,989.80
2024-01-18T01:31:23.871Z,989.75
2024-01-18T01:32:23.913Z,989.81
2024-01-18T01:33:23.965Z,989.80
2024-01-18T01:34:23.913Z,989.77
2024-01-18T01:35:23.859Z,989.75
2024-01-18T01:36:23.894Z,989.74
2024-01-18T01:37:23.815Z,989.74
2024-01-18T01:38:23.790Z,989.74
2024-01-18T01:39:23.841Z,989.79
2024-01-18T01:40:23.783Z,989.77
2024-01-18T01:41:23.792Z,989.81
2024-01-18T01:42:23.807Z,989.84
2024-01-18T01:43:23.711Z,989.86
2024-01-18T01:44:23.695Z,989.93
2024-01-18T01:45:23.753Z,989.98
2024-01-18T01:46:23.701Z,990.01
2024-01-18T01:47:23.719Z,990.00
2024-01-18T01:48:24.692Z,990.03
2024-01-18T01:49:23.705Z,990.09
2024-01-18T01:50:23.628Z,990.21
2024-01-18T01:51:23.635Z,990.18
2024-01-18T01:52:23.615Z,990.10
2024-01-18T01:53:23.717Z,990.10
2024-01-18T01:54:23.603Z,990.14
2024-01-18T01:55:23.622Z,990.16
2024-01-18T01:56:23.540Z,990.21
2024-01-18T01:57:23.551Z,990.26
2024-01-18T01:58:23.509Z,990.23
2024-01-18T01:59:23.561Z,990.21
2024-01-18T02:00:23.546Z,990.31
2024-01-18T02:01:23.546Z,990.25
2024-01-18T02:02:23.514Z,990.29
2024-01-18T02:03:23.536Z,990.23
2024-01-18T02:04:23.585Z,990.29
2024-01-18T02:05:26.358Z,990.26
2024-01-18T02:06:23.525Z,990.32
2024-01-18T02:07:23.440Z,990.31
2024-01-18T02:08:23.420Z,990.33
2024-01-18T02:09:23.456Z,990.32
2024-01-18T02:10:23.434Z,990.33
2024-01-18T02:11:23.383Z,990.36
2024-01-18T02:12:23.351Z,990.28
2024-01-18T02:13:23.325Z,990.30
2024-01-18T02:14:23.344Z,990.30
2024-01-18T02:15:23.330Z,990.28
2024-01-18T02:16:23.307Z,990.27
2024-01-18T02:17:23.326Z,990.26
2024-01-18T02:18:24.171Z,990.25
2024-01-18T02:19:23.369Z,990.24
2024-01-18T02:20:23.263Z,990.27
2024-01-18T02:21:23.325Z,990.25
2024-01-18T02:22:23.236Z,990.24
2024-01-18T02:23:23.220Z,990.24
2024-01-18T02:24:23.271Z,990.25
2024-01-18T02:25:23.174Z,990.22
2024-01-18T02:26:23.152Z,990.24
2024-01-18T02:27:23.234Z,990.22
2024-01-18T02:28:23.128Z,990.25
2024-01-18T02:29:23.166Z,990.32
2024-01-18T02:30:24.738Z,990.28
2024-01-18T02:31:23.094Z,990.27
2024-01-18T02:32:23.091Z,990.32
2024-01-18T02:33:23.221Z,990.33
2024-01-18T02:34:23.201Z,990.31
2024-01-18T02:35:23.095Z,990.33
2024-01-18T02:36:23.050Z,990.29
2024-01-18T02:37:23.045Z,990.26
2024-01-18T02:38:23.031Z,990.28
2024-01-18T02:39:23.028Z,990.28
2024-01-18T02:40:25.708Z,990.28
2024-01-18T02:41:23.009Z,990.29
2024-01-18T02:42:23.056Z,990.25
2024-01-18T02:43:22.941Z,990.31
2024-01-18T02:44:22.925Z,990.30
2024-01-18T02:45:22.978Z,990.33
2024-01-18T02:46:22.934Z,990.38
2024-01-18T02:47:23.049Z,990.39
2024-01-18T02:48:22.969Z,990.35
2024-01-18T02:49:22.930Z,990.32
2024-01-18T02:50:22.864Z,990.35
2024-01-18T02:51:23.779Z,990.28
2024-01-18T02:52:22.842Z,990.27
2024-01-18T02:53:22.845Z,990.28
2024-01-18T02:54:22.854Z,990.28
2024-01-18T02:55:22.814Z,990.31
2024-01-18T02:56:22.811Z,990.31
2024-01-18T02:57:22.804Z,990.41
2024-01-18T02:58:22.745Z,990.43
2024-01-18T02:59:22.888Z,990.39
2024-01-18T03:00:22.736Z,990.37
2024-01-18T03:01:22.740Z,990.38
2024-01-18T03:02:22.695Z,990.37
2024-01-18T03:03:23.708Z,990.38
2024-01-18T03:04:22.743Z,990.42
2024-01-18T03:05:22.677Z,990.44
2024-01-18T03:06:22.652Z,990.45
2024-01-18T03:07:22.653Z,990.43
2024-01-18T03:08:22.698Z,990.48
2024-01-18T03:09:22.646Z,990.48
2024-01-18T03:10:22.582Z,990.53
2024-01-18T03:11:22.654Z,990.53
2024-01-18T03:12:22.649Z,990.61
2024-01-18T03:13:22.583Z,990.60
2024-01-18T03:14:22.544Z,990.60
2024-01-18T03:15:22.549Z,990.64
2024-01-18T03:16:22.503Z,990.65
2024-01-18T03:17:22.559Z,990.63
2024-01-18T03:18:22.516Z,990.64
2024-01-18T03:19:22.546Z,990.61
2024-01-18T03:20:22.460Z,990.60
2024-01-18T03:21:22.466Z,990.55
2024-01-18T03:22:22.462Z,990.57
2024-01-18T03:23:22.564Z,990.55
2024-01-18T03:24:22.425Z,990.57
2024-01-18T03:25:22.423Z,990.54
2024-01-18T03:26:22.383Z,990.59
2024-01-18T03:27:22.443Z,990.57
2024-01-18T03:28:22.386Z,990.57
2024-01-18T03:29:22.427Z,990.57
2024-01-18T03:30:22.412Z,990.62
2024-01-18T03:31:22.317Z,990.62
2024-01-18T03:32:22.306Z,990.62
2024-01-18T03:33:22.425Z,990.64
2024-01-18T03:34:22.429Z,990.65
2024-01-18T03:35:25.193Z,990.64
2024-01-18T03:36:22.294Z,990.68
2024-01-18T03:37:22.279Z,990.67
2024-01-18T03:38:22.257Z,990.66
2024-01-18T03:39:22.271Z,990.66
2024-01-18T03:40:22.200Z,990.62
2024-01-18T03:41:22.251Z,990.65
2024-01-18T03:42:22.247Z,990.66
2024-01-18T03:43:23.127Z,990.64
2024-01-18T03:44:22.160Z,990.66
2024-01-18T03:45:22.174Z,990.66
2024-01-18T03:46:22.126Z,990.66
2024-01-18T03:47:22.337Z,990.68
2024-01-18T03:48:22.129Z,990.65
2024-01-18T03:49:22.170Z,990.67
2024-01-18T03:50:22.107Z,990.77
2024-01-18T03:51:22.200Z,990.73
2024-01-18T03:52:22.062Z,990.71
2024-01-18T03:53:22.112Z,990.69
2024-01-18T03:54:22.091Z,990.68
2024-01-18T03:55:22.021Z,990.68
2024-01-18T03:56:22.036Z,990.67
2024-01-18T03:57:22.051Z,990.69
2024-01-18T03:58:22.008Z,990.70
2024-01-18T03:59:22.027Z,990.73
2024-01-18T04:00:22.034Z,990.69
2024-01-18T04:01:22.014Z,990.74
2024-01-18T04:02:21.941Z,990.77
2024-01-18T04:03:23.010Z,990.77
2024-01-18T04:04:22.769Z,990.82
2024-01-18T04:05:22.063Z,990.80
2024-01-18T04:06:21.986Z,990.80
2024-01-18T04:07:21.898Z,990.76
2024-01-18T04:08:21.892Z,990.78
2024-01-18T04:09:21.920Z,990.81
2024-01-18T04:10:21.823Z,990.79
2024-01-18T04:11:21.870Z,990.76
2024-01-18T04:12:21.948Z,990.76
2024-01-18T04:13:21.791Z,990.75
2024-01-18T04:14:21.775Z,990.75
2024-01-18T04:15:21.800Z,990.81
2024-01-18T04:16:22.446Z,990.78
2024-01-18T04:17:21.966Z,990.80
2024-01-18T04:18:21.816Z,990.83
2024-01-18T04:19:21.807Z,990.91
2024-01-18T04:20:21.731Z,990.90
2024-01-18T04:21:21.769Z,990.81
2024-01-18T04:22:21.677Z,990.83
2024-01-18T04:23:21.694Z,990.83
2024-01-18T04:24:21.717Z,990.81
2024-01-18T04:25:21.648Z,990.79
2024-01-18T04:26:22.352Z,990.76
2024-01-18T04:27:21.677Z,990.76
2024-01-18T04:28:21.700Z,990.80
2024-01-18T04:29:21.647Z,990.76
2024-01-18T04:30:21.608Z,990.83
2024-01-18T04:31:21.597Z,990.84
2024-01-18T04:32:21.570Z,990.83
2024-01-18T04:33:21.642Z,990.87
2024-01-18T04:34:21.568Z,990.93
2024-01-18T04:35:21.617Z,990.93
2024-01-18T04:36:21.574Z,990.97
2024-01-18T04:37:21.534Z,990.95
2024-01-18T04:38:21.518Z,991.02
2024-01-18T04:39:21.497Z,991.04
2024-01-18T04:40:21.491Z,991.07
2024-01-18T04:41:21.588Z,991.07
2024-01-18T04:42:21.642Z,991.13
2024-01-18T04:43:21.408Z,991.15
2024-01-18T04:44:21.423Z,991.16
2024-01-18T04:45:21.416Z,991.18
2024-01-18T04:46:21.437Z,991.17
2024-01-18T04:47:21.409Z,991.21
2024-01-18T04:48:21.450Z,991.20
2024-01-18T04:49:21.389Z,991.19
2024-01-18T04:50:21.319Z,991.19
2024-01-18T04:51:22.028Z,991.22
2024-01-18T04:52:21.302Z,991.15
2024-01-18T04:53:21.313Z,991.20
2024-01-18T04:54:21.301Z,991.22
2024-01-18T04:55:21.278Z,991.19
2024-01-18T04:56:21.264Z,991.18
2024-01-18T04:57:21.280Z,991.18
2024-01-18T04:58:21.210Z,991.20
2024-01-18T04:59:21.359Z,991.20
2024-01-18T05:00:21.247Z,991.23
2024-01-18T05:01:21.203Z,991.20
2024-01-18T05:02:21.168Z,991.20
2024-01-18T05:03:21.227Z,991.26
2024-01-18T05:04:21.208Z,991.26
2024-01-18T05:05:21.578Z,991.23
2024-01-18T05:06:21.229Z,991.26
2024-01-18T05:07:21.307Z,991.22
2024-01-18T05:08:21.116Z,991.20
2024-01-18T05:09:21.153Z,991.26
2024-01-18T05:10:21.090Z,991.25
2024-01-18T05:11:21.186Z,991.22
2024-01-18T05:12:22.029Z,991.26
2024-01-18T05:13:21.056Z,991.24
2024-01-18T05:14:21.029Z,991.25
2024-01-18T05:15:21.033Z,991.30
2024-01-18T05:16:20.989Z,991.27
2024-01-18T05:17:21.025Z,991.25
2024-01-18T05:18:21.075Z,991.28
2024-01-18T05:19:20.986Z,991.26
2024-01-18T05:20:20.932Z,991.25
2024-01-18T05:21:21.677Z,991.27
2024-01-18T05:22:20.956Z,991.29
2024-01-18T05:23:20.947Z,991.33
2024-01-18T05:24:20.988Z,991.28
2024-01-18T05:25:21.842Z,991.41
2024-01-18T05:26:20.870Z,991.39
2024-01-18T05:27:20.891Z,991.37
2024-01-18T05:28:20.840Z,991.35
2024-01-18T05:29:20.867Z,991.38
2024-01-18T05:30:20.917Z,991.43
2024-01-18T05:31:20.842Z,991.43
2024-01-18T05:32:21.514Z,991.46
2024-01-18T05:33:21.002Z,991.46
2024-01-18T05:34:20.871Z,991.50
2024-01-18T05:35:20.849Z,991.53
2024-01-18T05:36:20.761Z,991.54
2024-01-18T05:37:20.737Z,991.57
2024-01-18T05:38:20.742Z,991.57
2024-01-18T05:39:20.729Z,991.61
2024-01-18T05:40:20.680Z,991.65
2024-01-18T05:41:20.732Z,991.66
2024-01-18T05:42:20.712Z,991.67
2024-01-18T05:43:20.635Z,991.66
2024-01-18T05:44:20.624Z,991.67
2024-01-18T05:45:20.638Z,991.72
2024-01-18T05:46:23.223Z,991.68
2024-01-18T05:47:20.663Z,991.73
2024-01-18T05:48:20.690Z,991.74
2024-01-18T05:49:20.741Z,991.72
2024-01-18T05:50:20.584Z,991.79
2024-01-18T05:51:20.611Z,991.79
2024-01-18T05:52:20.550Z,991.73
2024-01-18T05:53:20.640Z,991.72
2024-01-18T05:54:20.533Z,991.81
2024-01-18T05:55:20.507Z,991.81
2024-01-18T05:56:20.501Z,991.81
2024-01-18T05:57:20.512Z,991.86
2024-01-18T05:58:20.474Z,991.79
2024-01-18T05:59:20.501Z,991.84
2024-01-18T06:00:20.452Z,991.82
2024-01-18T06:01:22.390Z,991.82
2024-01-18T06:02:25.367Z,991.83
2024-01-18T06:03:21.211Z,991.86
2024-01-18T06:04:21.173Z,991.89
2024-01-18T06:05:21.163Z,991.90
2024-01-18T06:06:21.382Z,991.88
2024-01-18T06:07:20.514Z,991.91
2024-01-18T06:08:20.320Z,991.94
2024-01-18T06:09:20.366Z,991.88
2024-01-18T06:10:20.389Z,991.95
2024-01-18T06:11:20.357Z,992.03
2024-01-18T06:12:20.330Z,992.06
2024-01-18T06:13:20.258Z,992.04
2024-01-18T06:14:20.259Z,992.10
2024-01-18T06:15:20.313Z,992.16
2024-01-18T06:16:20.209Z,992.14
2024-01-18T06:17:20.226Z,992.14
2024-01-18T06:18:20.367Z,992.14
2024-01-18T06:19:20.249Z,992.14
2024-01-18T06:20:20.193Z,992.18
2024-01-18T06:21:20.199Z,992.14
2024-01-18T06:22:20.181Z,992.19
2024-01-18T06:23:20.188Z,992.14
2024-01-18T06:24:20.176Z,992.13
2024-01-18T06:25:20.101Z,992.19
2024-01-18T06:26:20.117Z,992.21
2024-01-18T06:27:20.155Z,992.24
2024-01-18T06:28:20.066Z,992.29
2024-01-18T06:29:20.113Z,992.35
2024-01-18T06:30:20.089Z,992.28
2024-01-18T06:31:20.031Z,992.36
2024-01-18T06:32:20.044Z,992.34
2024-01-18T06:33:20.119Z,992.31
2024-01-18T06:34:20.152Z,992.35
2024-01-18T06:35:20.107Z,992.33
2024-01-18T06:36:20.024Z,992.35
2024-01-18T06:37:19.981Z,992.33
2024-01-18T06:38:19.933Z,992.33
2024-01-18T06:39:19.990Z,992.34
2024-01-18T06:40:20.017Z,992.41
2024-01-18T06:41:21.013Z,992.38
2024-01-18T06:42:19.943Z,992.38
2024-01-18T06:43:19.875Z,992.37
2024-01-18T06:44:19.905Z,992.35
2024-01-18T06:45:20.007Z,992.37
2024-01-18T06:46:19.858Z,992.37
2024-01-18T06:47:19.958Z,992.39
2024-01-18T06:48:19.866Z,992.40
2024-01-18T06:49:19.870Z,992.48
2024-01-18T06:50:19.821Z,992.47
2024-01-18T06:51:19.823Z,992.44
2024-01-18T06:52:19.791Z,992.53
2024-01-18T06:53:19.784Z,992.48
2024-01-18T06:54:19.781Z,992.49
2024-01-18T06:55:19.747Z,992.52
2024-01-18T06:56:19.710Z,992.51
2024-01-18T06:57:19.800Z,992.58
2024-01-18T06:58:19.681Z,992.58
2024-01-18T06:59:19.732Z,992.61
2024-01-18T07:00:19.681Z,992.58
2024-01-18T07:01:19.723Z,992.64
2024-01-18T07:02:19.668Z,992.59
2024-01-18T07:03:19.754Z,992.62
2024-01-18T07:04:19.679Z,992.63
2024-01-18T07:05:19.641Z,992.66
2024-01-18T07:06:19.614Z,992.74
2024-01-18T07:07:19.603Z,992.79
2024-01-18T07:08:19.589Z,992.82
2024-01-18T07:09:19.646Z,992.88
2024-01-18T07:10:19.569Z,992.83
2024-01-18T07:11:19.732Z,992.89
2024-01-18T07:12:19.576Z,992.91
2024-01-18T07:13:19.491Z,992.97
2024-01-18T07:14:19.483Z,992.95
2024-01-18T07:15:19.519Z,993.01
2024-01-18T07:16:19.463Z,993.01
2024-01-18T07:17:19.511Z,993.08
2024-01-18T07:18:19.581Z,993.00
2024-01-18T07:19:19.562Z,993.06
2024-01-18T07:20:19.398Z,993.05
2024-01-18T07:21:19.471Z,993.05
2024-01-18T07:22:19.420Z,993.14
2024-01-18T07:23:19.391Z,993.11
2024-01-18T07:24:19.412Z,993.13
2024-01-18T07:25:19.753Z,993.18
2024-01-18T07:26:19.356Z,993.11
2024-01-18T07:27:19.370Z,993.15
2024-01-18T07:28:19.334Z,993.10
2024-01-18T07:29:19.343Z,993.08
2024-01-18T07:30:19.357Z,993.04
2024-01-18T07:31:19.288Z,993.09
2024-01-18T07:32:19.282Z,993.18
2024-01-18T07:33:19.378Z,993.14
2024-01-18T07:34:19.361Z,993.16
2024-01-18T07:35:19.272Z,993.16
2024-01-18T07:36:20.010Z,993.17
2024-01-18T07:37:19.222Z,993.17
2024-01-18T07:38:19.174Z,993.18
2024-01-18T07:39:19.236Z,993.14
2024-01-18T07:40:19.148Z,993.15
2024-01-18T07:41:19.197Z,993.19
2024-01-18T07:42:19.172Z,993.21
2024-01-18T07:43:19.106Z,993.21
2024-01-18T07:44:19.128Z,993.28
2024-01-18T07:45:19.155Z,993.20
2024-01-18T07:46:19.077Z,993.16
2024-01-18T07:47:19.201Z,993.14
2024-01-18T07:48:19.137Z,993.19
2024-01-18T07:49:19.109Z,993.15
2024-01-18T07:50:30.253Z,993.19
2024-01-18T07:51:20.092Z,993.23
2024-01-18T07:52:19.751Z,993.18
2024-01-18T07:53:19.138Z,993.18
2024-01-18T07:54:19.001Z,993.17
2024-01-18T07:55:22.355Z,993.16
2024-01-18T07:56:18.966Z,993.17
2024-01-18T07:57:18.996Z,993.16
2024-01-18T07:58:18.928Z,993.19
2024-01-18T07:59:18.975Z,993.24
2024-01-18T08:00:18.987Z,993.25
2024-01-18T08:01:18.952Z,993.26
2024-01-18T08:02:18.912Z,993.29
2024-01-18T08:03:18.952Z,993.30
2024-01-18T08:04:19.050Z,993.35
2024-01-18T08:05:18.917Z,993.37
2024-01-18T08:06:18.991Z,993.36
2024-01-18T08:07:18.847Z,993.34
2024-01-18T08:08:19.770Z,993.37
2024-01-18T08:09:18.814Z,993.40
2024-01-18T08:10:18.767Z,993.37
2024-01-18T08:11:18.919Z,993.32
2024-01-18T08:12:18.806Z,993.34
2024-01-18T08:13:18.750Z,993.33
2024-01-18T08:14:18.727Z,993.34
2024-01-18T08:15:18.719Z,993.41
2024-01-18T08:16:18.692Z,993.41
2024-01-18T08:17:18.736Z,993.36
2024-01-18T08:18:19.757Z,993.39
2024-01-18T08:19:19.791Z,993.40
2024-01-18T08:20:19.616Z,993.43
2024-01-18T08:21:18.725Z,993.38
2024-01-18T08:22:18.660Z,993.43
2024-01-18T08:23:18.665Z,993.40
2024-01-18T08:24:18.618Z,993.37
2024-01-18T08:25:18.610Z,993.40
2024-01-18T08:26:18.567Z,993.41
2024-01-18T08:27:18.658Z,993.45
2024-01-18T08:28:18.544Z,993.50
2024-01-18T08:29:18.574Z,993.54
2024-01-18T08:30:19.292Z,993.50
2024-01-18T08:31:18.494Z,993.52
2024-01-18T08:32:18.524Z,993.56
2024-01-18T08:33:18.533Z,993.54
2024-01-18T08:34:18.460Z,993.60
2024-01-18T08:35:18.483Z,993.65
2024-01-18T08:36:18.510Z,993.65
2024-01-18T08:37:18.516Z,993.70
2024-01-18T08:38:18.443Z,993.69
2024-01-18T08:39:18.458Z,993.66
2024-01-18T08:40:18.424Z,993.71
2024-01-18T08:41:18.438Z,993.76
2024-01-18T08:42:18.421Z,993.78
2024-01-18T08:43:19.307Z,993.81
2024-01-18T08:44:18.365Z,993.77
2024-01-18T08:45:18.387Z,993.83
2024-01-18T08:46:19.338Z,993.87
2024-01-18T08:47:20.504Z,993.84
2024-01-18T08:48:18.383Z,993.86
2024-01-18T08:49:18.396Z,993.86
2024-01-18T08:50:18.343Z,993.79
2024-01-18T08:51:18.341Z,993.84
2024-01-18T08:52:18.329Z,993.84
2024-01-18T08:53:18.270Z,993.81
2024-01-18T08:54:18.281Z,993.82
2024-01-18T08:55:18.196Z,993.82
2024-01-18T08:56:22.414Z,994.00
2024-01-18T08:57:19.788Z,994.07
2024-01-18T08:58:18.161Z,994.08
2024-01-18T08:59:18.226Z,994.08
2024-01-18T09:00:18.166Z,994.14
2024-01-18T09:01:18.222Z,994.13
2024-01-18T09:02:23.533Z,994.11
2024-01-18T09:03:20.018Z,994.13
2024-01-18T09:04:19.079Z,994.09
2024-01-18T09:05:18.233Z,994.12
2024-01-18T09:06:18.069Z,994.13
2024-01-18T09:07:18.148Z,994.07
2024-01-18T09:08:18.166Z,994.19
2024-01-18T09:09:18.066Z,994.10
2024-01-18T09:10:18.039Z,994.10
2024-01-18T09:11:18.033Z,994.13
2024-01-18T09:12:17.994Z,994.21
2024-01-18T09:13:20.296Z,994.18
2024-01-18T09:14:17.956Z,994.21
2024-01-18T09:15:17.989Z,994.17
2024-01-18T09:16:17.965Z,994.20
2024-01-18T09:17:17.991Z,994.20
2024-01-18T09:18:18.077Z,994.26
2024-01-18T09:19:18.007Z,994.28
2024-01-18T09:20:17.963Z,994.24
2024-01-18T09:21:17.929Z,994.33
2024-01-18T09:22:17.894Z,994.31
2024-01-18T09:23:17.878Z,994.32
2024-01-18T09:24:17.892Z,994.40
2024-01-18T09:25:18.793Z,994.37
2024-01-18T09:26:17.807Z,994.39
2024-01-18T09:27:17.872Z,994.33
2024-01-18T09:28:17.790Z,994.35
2024-01-18T09:29:17.934Z,994.42
2024-01-18T09:30:17.850Z,994.39
2024-01-18T09:31:30.362Z,994.47
2024-01-18T09:32:18.769Z,994.44
2024-01-18T09:33:17.746Z,994.47
2024-01-18T09:34:17.751Z,994.48
2024-01-18T09:35:17.756Z,994.49
2024-01-18T09:36:17.694Z,994.47
2024-01-18T09:37:17.697Z,994.59
2024-01-18T09:38:17.650Z,994.55
2024-01-18T09:39:18.087Z,994.61
2024-01-18T09:40:17.654Z,994.64
2024-01-18T09:41:18.616Z,994.67
2024-01-18T09:42:17.693Z,994.69
2024-01-18T09:43:18.921Z,994.66
2024-01-18T09:44:17.608Z,994.69
2024-01-18T09:45:17.594Z,994.75
2024-01-18T09:46:17.578Z,994.71
2024-01-18T09:47:17.643Z,994.73
2024-01-18T09:48:17.623Z,994.74
2024-01-18T09:49:17.537Z,994.79
2024-01-18T09:50:17.577Z,994.77
2024-01-18T09:51:17.546Z,994.83
2024-01-18T09:52:17.503Z,994.83
2024-01-18T09:53:17.621Z,994.82
2024-01-18T09:54:17.476Z,994.81
2024-01-18T09:55:17.702Z,994.83
2024-01-18T09:56:17.424Z,994.80
2024-01-18T09:57:17.479Z,994.85
2024-01-18T09:58:17.391Z,994.83
2024-01-18T09:59:17.439Z,994.81
2024-01-18T10:00:17.452Z,994.80
2024-01-18T10:01:17.395Z,994.81
2024-01-18T10:02:17.387Z,994.81
2024-01-18T10:03:17.414Z,994.85
2024-01-18T10:04:17.339Z,994.90
2024-01-18T10:05:17.330Z,994.87
2024-01-18T10:06:17.468Z,994.89
2024-01-18T10:07:17.501Z,994.87
2024-01-18T10:08:17.402Z,994.93
2024-01-18T10:09:17.426Z,994.92
2024-01-18T10:10:17.237Z,994.91
2024-01-18T10:11:17.366Z,994.95
2024-01-18T10:12:17.263Z,994.99
2024-01-18T10:13:17.200Z,994.90
2024-01-18T10:14:17.223Z,994.91
2024-01-18T10:15:17.207Z,994.98
2024-01-18T10:16:17.166Z,994.91
2024-01-18T10:17:17.213Z,994.94
2024-01-18T10:18:17.193Z,995.00
2024-01-18T10:19:17.161Z,994.92
2024-01-18T10:20:17.190Z,994.99
2024-01-18T10:21:17.121Z,995.01
2024-01-18T10:22:17.163Z,994.97
2024-01-18T10:23:17.203Z,995.04
2024-01-18T10:24:17.107Z,995.01
2024-01-18T10:25:17.072Z,994.95
2024-01-18T10:26:17.028Z,995.01
2024-01-18T10:27:17.082Z,994.99
2024-01-18T10:28:17.005Z,995.04
2024-01-18T10:29:17.046Z,995.06
2024-01-18T10:30:17.161Z,995.07
2024-01-18T10:31:16.966Z,995.09
2024-01-18T10:32:16.980Z,995.13
2024-01-18T10:33:17.048Z,995.10
2024-01-18T10:34:17.019Z,995.12
2024-01-18T10:35:17.012Z,995.12
2024-01-18T10:36:16.967Z,995.14
2024-01-18T10:37:16.885Z,995.16
2024-01-18T10:38:16.883Z,995.16
2024-01-18T10:39:16.893Z,995.19
2024-01-18T10:40:16.872Z,995.16
2024-01-18T10:41:16.897Z,995.17
2024-01-18T10:42:17.022Z,995.20
2024-01-18T10:43:16.812Z,995.20
2024-01-18T10:44:17.150Z,995.19
2024-01-18T10:45:16.829Z,995.23
2024-01-18T10:46:16.818Z,995.24
2024-01-18T10:47:16.813Z,995.17
2024-01-18T10:48:16.805Z,995.18
2024-01-18T10:49:16.805Z,995.24
2024-01-18T10:50:16.748Z,995.23
2024-01-18T10:51:16.717Z,995.23
2024-01-18T10:52:16.716Z,995.23
2024-01-18T10:53:16.733Z,995.25
2024-01-18T10:54:25.646Z,995.24
2024-01-18T10:55:17.720Z,995.27
2024-01-18T10:56:16.633Z,995.27
2024-01-18T10:57:16.732Z,995.27
2024-01-18T10:58:16.622Z,995.26
2024-01-18T10:59:16.664Z,995.27
2024-01-18T11:00:16.629Z,995.28
2024-01-18T11:01:16.741Z,995.36
2024-01-18T11:02:16.594Z,995.32
2024-01-18T11:03:16.573Z,995.34
2024-01-18T11:04:16.644Z,995.35
2024-01-18T11:05:16.670Z,995.47
2024-01-18T11:06:16.585Z,995.48
2024-01-18T11:07:16.693Z,995.57
2024-01-18T11:08:16.478Z,995.47
2024-01-18T11:09:16.556Z,995.52
2024-01-18T11:10:16.524Z,995.53
2024-01-18T11:11:16.510Z,995.46
2024-01-18T11:12:16.466Z,995.37
2024-01-18T11:13:16.475Z,995.43
2024-01-18T11:14:16.433Z,995.52
2024-01-18T11:15:16.413Z,995.49
2024-01-18T11:16:16.375Z,995.48
2024-01-18T11:17:16.380Z,995.57
2024-01-18T11:18:16.413Z,995.63
2024-01-18T11:19:16.419Z,995.57
2024-01-18T11:20:16.421Z,995.64
2024-01-18T11:21:16.345Z,995.65
2024-01-18T11:22:16.300Z,995.57
2024-01-18T11:23:16.358Z,995.66
2024-01-18T11:24:16.279Z,995.58
2024-01-18T11:25:16.259Z,995.68
2024-01-18T11:26:16.258Z,995.70
2024-01-18T11:27:16.342Z,995.69
2024-01-18T11:28:16.229Z,995.70
2024-01-18T11:29:16.372Z,995.70
2024-01-18T11:30:16.268Z,995.71
2024-01-18T11:31:17.144Z,995.72
2024-01-18T11:32:16.201Z,995.72
2024-01-18T11:33:16.220Z,995.74
2024-01-18T11:34:16.147Z,995.72
2024-01-18T11:35:16.291Z,995.70
2024-01-18T11:36:16.175Z,995.72
2024-01-18T11:37:16.136Z,995.73
2024-01-18T11:38:16.084Z,995.73
2024-01-18T11:39:16.137Z,995.75
2024-01-18T11:40:16.070Z,995.78
2024-01-18T11:41:16.085Z,995.83
2024-01-18T11:42:16.064Z,995.87
2024-01-18T11:43:16.026Z,995.86
2024-01-18T11:44:16.045Z,995.95
2024-01-18T11:45:16.066Z,995.96
2024-01-18T11:46:17.470Z,995.95
2024-01-18T11:47:16.036Z,995.93
2024-01-18T11:48:16.776Z,995.97
2024-01-18T11:49:16.051Z,995.97
2024-01-18T11:50:16.068Z,996.00
2024-01-18T11:51:15.949Z,996.05
2024-01-18T11:52:15.933Z,996.10
2024-01-18T11:53:16.036Z,996.14
2024-01-18T11:54:15.924Z,996.10
2024-01-18T11:55:15.867Z,996.12
2024-01-18T11:56:15.859Z,996.11
2024-01-18T11:57:15.881Z,996.11
2024-01-18T11:58:15.828Z,996.08
2024-01-18T11:59:15.974Z,996.10
2024-01-18T12:00:15.919Z,996.08
2024-01-18T12:01:16.015Z,996.15
2024-01-18T12:02:15.798Z,996.14
2024-01-18T12:03:15.855Z,996.15
2024-01-18T12:04:16.463Z,996.13
2024-01-18T12:05:15.778Z,996.19
2024-01-18T12:06:15.756Z,996.18
2024-01-18T12:07:15.787Z,996.19
2024-01-18T12:08:15.699Z,996.16
2024-01-18T12:09:15.730Z,996.20
2024-01-18T12:10:15.670Z,996.21
2024-01-18T12:11:15.689Z,996.25
2024-01-18T12:12:15.700Z,996.25
2024-01-18T12:13:15.699Z,996.22
2024-01-18T12:14:15.647Z,996.15
2024-01-18T12:15:15.678Z,996.18
2024-01-18T12:16:15.593Z,996.17
2024-01-18T12:17:15.630Z,996.19
2024-01-18T12:18:15.672Z,996.20
2024-01-18T12:19:15.642Z,996.17
2024-01-18T12:20:15.741Z,996.19
2024-01-18T12:21:15.589Z,996.18
2024-01-18T12:22:15.544Z,996.17
2024-01-18T12:23:15.551Z,996.19
2024-01-18T12:24:15.533Z,996.23
2024-01-18T12:25:15.510Z,996.20
2024-01-18T12:26:15.495Z,996.24
2024-01-18T12:27:15.479Z,996.21
2024-01-18T12:28:15.479Z,996.22